createdAt,value
2022-10-18T00:01:58.413Z,18.62
2022-10-18T00:04:33.777Z,18.61
2022-10-18T00:07:04.155Z,18.58
2022-10-18T00:09:30.987Z,18.56
2022-10-18T00:11:57.808Z,18.40
2022-10-18T00:14:24.760Z,18.42
2022-10-18T00:17:35.160Z,18.57
2022-10-18T00:20:04.384Z,18.31
2022-10-18T00:22:31.756Z,18.59
2022-10-18T00:24:58.669Z,18.52
2022-10-18T00:27:25.957Z,18.60
2022-10-18T00:29:53.505Z,18.57
2022-10-18T00:32:22.223Z,18.48
2022-10-18T00:34:49.071Z,18.54
2022-10-18T00:37:21.958Z,18.47
2022-10-18T00:39:48.611Z,18.45
2022-10-18T00:42:32.284Z,18.12
2022-10-18T00:45:15.313Z,18.43
2022-10-18T00:47:45.830Z,18.41
2022-10-18T00:50:17.442Z,18.35
2022-10-18T00:52:52.501Z,18.30
2022-10-18T00:55:22.679Z,18.23
2022-10-18T00:57:52.615Z,18.26
2022-10-18T01:00:19.692Z,18.17
2022-10-18T01:02:47.515Z,18.31
2022-10-18T01:05:16.467Z,18.30
2022-10-18T01:08:06.338Z,18.09
2022-10-18T01:10:49.997Z,17.71
2022-10-18T01:14:11.132Z,18.26
2022-10-18T01:16:57.745Z,18.13
2022-10-18T01:19:43.223Z,18.23
2022-10-18T01:22:21.944Z,18.24
2022-10-18T01:25:03.938Z,18.23
2022-10-18T01:27:41.707Z,18.19
2022-10-18T01:30:44.580Z,18.17
2022-10-18T01:33:15.673Z,17.94
2022-10-18T01:35:49.351Z,17.87
2022-10-18T01:38:19.072Z,17.70
2022-10-18T01:40:49.677Z,18.03
2022-10-18T01:43:18.562Z,18.05
2022-10-18T01:45:46.662Z,17.71
2022-10-18T01:48:17.552Z,18.05
2022-10-18T01:50:44.723Z,17.89
2022-10-18T01:53:35.648Z,17.86
2022-10-18T01:56:02.456Z,17.61
2022-10-18T01:58:37.458Z,17.86
2022-10-18T02:01:20.763Z,17.94
2022-10-18T02:03:55.434Z,17.99
2022-10-18T02:06:29.400Z,17.63
2022-10-18T02:09:16.140Z,17.93
2022-10-18T02:11:45.085Z,17.90
2022-10-18T02:14:14.225Z,17.19
2022-10-18T02:16:54.727Z,17.83
2022-10-18T02:19:38.993Z,17.59
2022-10-18T02:22:09.136Z,17.57
2022-10-18T02:24:39.562Z,17.60
2022-10-18T02:27:09.017Z,17.71
2022-10-18T02:29:37.956Z,17.74
2022-10-18T02:32:26.469Z,17.74
2022-10-18T02:35:16.824Z,17.54
2022-10-18T02:37:46.952Z,17.68
2022-10-18T02:40:14.332Z,17.49
2022-10-18T02:42:55.187Z,17.73
2022-10-18T02:45:22.323Z,17.72
2022-10-18T02:47:49.224Z,17.72
2022-10-18T02:50:16.055Z,17.68
2022-10-18T02:52:42.954Z,17.72
2022-10-18T02:55:10.929Z,17.51
2022-10-18T02:57:38.013Z,17.56
2022-10-18T03:00:06.221Z,17.65
2022-10-18T03:02:38.316Z,17.32
2022-10-18T03:05:08.222Z,17.62
2022-10-18T03:07:35.253Z,17.55
2022-10-18T03:10:02.240Z,17.57
2022-10-18T03:12:31.581Z,17.57
2022-10-18T03:15:01.533Z,17.38
2022-10-18T03:17:34.143Z,17.46
2022-10-18T03:20:01.246Z,17.55
2022-10-18T03:24:57.829Z,17.59
2022-10-18T03:27:24.672Z,17.61
2022-10-18T03:29:51.654Z,17.58
2022-10-18T03:32:19.561Z,17.44
2022-10-18T03:34:46.560Z,17.60
2022-10-18T03:37:13.269Z,17.60
2022-10-18T03:39:39.837Z,17.66
2022-10-18T03:42:06.533Z,17.60
2022-10-18T03:44:33.090Z,17.47
2022-10-18T03:46:59.669Z,17.60
2022-10-18T03:49:26.441Z,17.60
2022-10-18T03:51:53.040Z,17.57
2022-10-18T03:54:19.930Z,17.46
2022-10-18T03:56:46.786Z,17.48
2022-10-18T03:59:13.749Z,17.24
2022-10-18T04:01:40.353Z,17.18
2022-10-18T04:04:06.976Z,17.13
2022-10-18T04:06:33.582Z,16.58
2022-10-18T04:09:00.358Z,17.09
2022-10-18T04:11:27.065Z,17.12
2022-10-18T04:13:56.863Z,17.01
2022-10-18T04:16:23.534Z,17.30
2022-10-18T04:18:50.233Z,17.30
2022-10-18T04:21:20.130Z,17.29
2022-10-18T04:23:50.807Z,17.19
2022-10-18T04:26:17.670Z,17.09
2022-10-18T04:28:44.660Z,17.23
2022-10-18T04:31:12.139Z,16.97
2022-10-18T04:33:42.290Z,17.00
2022-10-18T04:36:12.132Z,17.27
2022-10-18T04:38:38.952Z,17.08
2022-10-18T04:41:05.631Z,17.25
2022-10-18T04:43:32.865Z,16.97
2022-10-18T04:45:59.593Z,17.27
2022-10-18T04:48:27.010Z,17.04
2022-10-18T04:50:53.851Z,17.24
2022-10-18T04:53:20.667Z,17.26
2022-10-18T04:55:51.104Z,17.00
2022-10-18T04:58:18.927Z,17.20
2022-10-18T05:00:49.477Z,17.20
2022-10-18T05:03:19.203Z,16.98
2022-10-18T05:06:02.717Z,17.18
2022-10-18T05:08:30.826Z,17.14
2022-10-18T05:10:57.868Z,17.14
2022-10-18T05:13:25.092Z,16.72
2022-10-18T05:15:53.891Z,16.55
2022-10-18T05:18:20.576Z,17.20
2022-10-18T05:20:47.535Z,16.75
2022-10-18T05:23:16.195Z,17.14
2022-10-18T05:25:43.648Z,17.13
2022-10-18T05:28:15.683Z,16.92
2022-10-18T05:30:54.402Z,17.15
2022-10-18T05:33:23.609Z,17.16
2022-10-18T05:35:52.146Z,17.17
2022-10-18T05:38:18.735Z,17.23
2022-10-18T05:40:45.418Z,17.01
2022-10-18T05:43:11.985Z,17.07
2022-10-18T05:45:38.916Z,17.14
2022-10-18T05:48:07.659Z,17.21
2022-10-18T05:50:40.393Z,17.15
2022-10-18T05:53:12.332Z,17.08
2022-10-18T05:55:45.156Z,16.98
2022-10-18T05:58:14.447Z,16.55
2022-10-18T06:00:43.837Z,17.19
2022-10-18T06:03:11.134Z,16.94
2022-10-18T06:08:07.991Z,17.20
2022-10-18T06:10:40.401Z,16.58
2022-10-18T06:13:07.103Z,17.34
2022-10-18T06:15:33.865Z,17.37
2022-10-18T06:18:00.810Z,17.39
2022-10-18T06:20:27.543Z,17.42
2022-10-18T06:22:55.804Z,17.40
2022-10-18T06:25:22.471Z,17.35
2022-10-18T06:27:51.428Z,17.39
2022-10-18T06:30:21.291Z,17.60
2022-10-18T06:32:54.014Z,17.08
2022-10-18T06:35:23.576Z,17.75
2022-10-18T06:37:50.233Z,17.76
2022-10-18T06:40:17.146Z,17.64
2022-10-18T06:42:55.189Z,17.61
2022-10-18T06:45:28.887Z,17.84
2022-10-18T06:47:55.446Z,17.86
2022-10-18T06:50:22.121Z,17.78
2022-10-18T06:52:55.449Z,17.48
2022-10-18T06:55:22.301Z,17.93
2022-10-18T06:57:49.105Z,17.97
2022-10-18T07:00:16.112Z,18.02
2022-10-18T07:02:42.789Z,17.97
2022-10-18T07:05:10.465Z,16.85
2022-10-18T07:07:37.966Z,18.08
2022-10-18T07:10:05.466Z,18.19
2022-10-18T07:12:35.581Z,18.22
2022-10-18T07:15:08.254Z,18.30
2022-10-18T07:17:36.210Z,18.27
2022-10-18T07:20:07.089Z,18.13
2022-10-18T07:22:34.358Z,18.23
2022-10-18T07:25:03.781Z,18.66
2022-10-18T07:27:31.137Z,18.66
2022-10-18T07:30:01.556Z,18.80
2022-10-18T07:32:28.927Z,18.75
2022-10-18T07:34:56.386Z,18.80
2022-10-18T07:37:26.621Z,18.72
2022-10-18T07:39:56.719Z,18.90
2022-10-18T07:42:23.669Z,18.95
2022-10-18T07:44:51.689Z,19.04
2022-10-18T07:47:22.332Z,19.24
2022-10-18T07:49:49.588Z,19.28
2022-10-18T07:52:16.380Z,19.36
2022-10-18T07:54:45.823Z,19.29
2022-10-18T07:57:12.605Z,19.22
2022-10-18T07:59:39.613Z,19.23
2022-10-18T08:02:06.942Z,19.44
2022-10-18T08:04:35.031Z,19.33
2022-10-18T08:07:02.820Z,19.70
2022-10-18T08:09:29.662Z,19.66
2022-10-18T08:11:56.542Z,19.47
2022-10-18T08:14:23.854Z,19.65
2022-10-18T08:16:50.527Z,19.63
2022-10-18T08:19:17.367Z,19.82
2022-10-18T08:21:44.286Z,19.83
2022-10-18T08:24:13.884Z,19.41
2022-10-18T08:26:43.398Z,19.77
2022-10-18T08:29:22.495Z,19.98
2022-10-18T08:31:51.297Z,20.06
2022-10-18T08:34:21.188Z,19.89
2022-10-18T08:36:47.941Z,19.82
2022-10-18T08:39:16.551Z,20.22
2022-10-18T08:41:56.548Z,20.43
2022-10-18T08:44:26.931Z,20.45
2022-10-18T08:47:04.272Z,20.35
2022-10-18T08:49:56.492Z,20.43
2022-10-18T08:52:26.666Z,20.67
2022-10-18T08:54:58.290Z,20.95
2022-10-18T08:57:25.295Z,20.72
2022-10-18T08:59:52.085Z,20.97
2022-10-18T09:02:51.003Z,20.55
2022-10-18T09:05:44.702Z,20.99
2022-10-18T09:08:30.228Z,21.15
2022-10-18T09:11:07.365Z,21.28
2022-10-18T09:13:53.081Z,21.38
2022-10-18T09:16:58.097Z,21.52
2022-10-18T09:19:44.976Z,21.68
2022-10-18T09:22:19.258Z,21.71
2022-10-18T09:25:35.844Z,21.64
2022-10-18T09:28:25.580Z,21.05
2022-10-18T09:31:11.341Z,22.15
2022-10-18T09:33:56.551Z,22.44
2022-10-18T09:36:27.100Z,22.50
2022-10-18T09:39:01.875Z,22.23
2022-10-18T09:41:41.314Z,22.74
2022-10-18T09:44:17.995Z,22.69
2022-10-18T09:46:52.612Z,22.76
2022-10-18T09:49:38.366Z,22.79
2022-10-18T09:52:09.320Z,22.84
2022-10-18T09:54:57.802Z,23.11
2022-10-18T09:57:28.588Z,23.30
2022-10-18T09:59:57.929Z,23.06
2022-10-18T10:02:24.691Z,23.30
2022-10-18T10:04:55.777Z,23.27
2022-10-18T10:07:35.145Z,23.59
2022-10-18T10:10:14.254Z,23.38
2022-10-18T10:12:46.365Z,23.75
2022-10-18T10:15:28.298Z,23.58
2022-10-18T10:18:02.903Z,24.07
2022-10-18T10:20:32.866Z,24.12
2022-10-18T10:23:16.632Z,23.97
2022-10-18T10:25:43.651Z,24.33
2022-10-18T10:28:16.894Z,24.24
2022-10-18T10:30:43.623Z,24.46
2022-10-18T10:33:36.401Z,24.64
2022-10-18T10:36:07.270Z,24.69
2022-10-18T10:38:34.343Z,24.42
2022-10-18T10:41:01.253Z,24.80
2022-10-18T10:43:40.097Z,24.95
2022-10-18T10:46:20.429Z,24.85
2022-10-18T10:48:57.229Z,24.70
2022-10-18T10:51:33.002Z,25.12
2022-10-18T10:54:15.172Z,25.20
2022-10-18T10:57:02.906Z,24.81
2022-10-18T10:59:48.653Z,24.46
2022-10-18T11:02:18.259Z,24.98
2022-10-18T11:04:48.687Z,24.28
2022-10-18T11:07:39.725Z,24.69
2022-10-18T11:10:11.251Z,24.61
2022-10-18T11:12:46.947Z,24.56
2022-10-18T11:15:31.652Z,24.49
2022-10-18T11:18:14.731Z,24.12
2022-10-18T11:20:43.261Z,24.34
2022-10-18T11:23:20.341Z,24.03
2022-10-18T11:26:12.147Z,24.29
2022-10-18T11:29:00.028Z,24.46
2022-10-18T11:32:04.438Z,23.96
2022-10-18T11:35:30.551Z,24.06
2022-10-18T11:38:52.970Z,24.03
2022-10-18T11:41:31.533Z,23.99
2022-10-18T11:44:03.107Z,23.99
2022-10-18T11:46:57.367Z,23.95
2022-10-18T11:49:29.986Z,24.08
2022-10-18T11:52:14.626Z,23.99
2022-10-18T11:54:59.999Z,23.98
2022-10-18T11:57:43.427Z,23.94
2022-10-18T12:00:44.968Z,23.97
2022-10-18T12:03:22.355Z,23.67
2022-10-18T12:05:51.381Z,23.91
2022-10-18T12:08:23.998Z,24.07
2022-10-18T12:11:04.947Z,23.90
2022-10-18T12:13:45.371Z,23.35
2022-10-18T12:16:15.049Z,23.96
2022-10-18T12:18:55.762Z,24.01
2022-10-18T12:21:29.713Z,23.89
2022-10-18T12:24:11.162Z,23.96
2022-10-18T12:26:39.817Z,23.95
2022-10-18T12:29:22.361Z,23.34
2022-10-18T12:31:57.605Z,23.88
2022-10-18T12:34:36.290Z,23.78
2022-10-18T12:37:35.178Z,23.75
2022-10-18T12:40:25.875Z,23.19
2022-10-18T12:42:53.755Z,23.81
2022-10-18T12:45:35.749Z,23.85
2022-10-18T12:48:06.689Z,23.69
2022-10-18T12:50:42.973Z,23.94
2022-10-18T12:53:09.763Z,23.96
2022-10-18T12:56:01.834Z,24.01
2022-10-18T12:58:31.757Z,23.95
2022-10-18T13:01:02.407Z,23.97
2022-10-18T13:03:48.311Z,23.77
2022-10-18T13:06:22.164Z,24.13
2022-10-18T13:09:11.594Z,24.08
2022-10-18T13:11:38.645Z,23.82
2022-10-18T13:14:17.623Z,24.01
2022-10-18T13:17:29.988Z,23.91
2022-10-18T13:20:26.420Z,23.57
2022-10-18T13:22:59.567Z,23.93
2022-10-18T13:25:49.608Z,23.60
2022-10-18T13:28:39.434Z,23.71
2022-10-18T13:31:35.407Z,23.95
2022-10-18T13:34:25.227Z,23.89
2022-10-18T13:37:10.756Z,23.85
2022-10-18T13:39:44.397Z,23.80
2022-10-18T13:42:33.154Z,23.39
2022-10-18T13:45:32.691Z,23.84
2022-10-18T13:48:55.667Z,23.76
2022-10-18T13:51:41.680Z,23.85
2022-10-18T13:54:40.043Z,23.48
2022-10-18T13:57:36.262Z,23.80
2022-10-18T14:00:02.989Z,23.75
2022-10-18T14:02:58.701Z,23.80
2022-10-18T14:06:04.879Z,23.80
2022-10-18T14:08:41.769Z,23.96
2022-10-18T14:11:30.098Z,23.82
2022-10-18T14:14:39.180Z,23.83
2022-10-18T14:17:37.122Z,23.81
2022-10-18T14:20:29.945Z,23.69
2022-10-18T14:23:00.226Z,23.81
2022-10-18T14:25:34.033Z,23.85
2022-10-18T14:28:08.854Z,23.70
2022-10-18T14:30:58.104Z,23.70
2022-10-18T14:33:34.484Z,23.33
2022-10-18T14:36:15.800Z,23.86
2022-10-18T14:38:45.795Z,23.80
2022-10-18T14:41:20.917Z,23.52
2022-10-18T14:43:48.520Z,23.12
2022-10-18T14:46:31.910Z,23.71
2022-10-18T14:49:01.132Z,23.72
2022-10-18T14:51:33.237Z,23.82
2022-10-18T14:54:01.559Z,23.78
2022-10-18T14:56:36.763Z,23.66
2022-10-18T14:59:10.866Z,23.71
2022-10-18T15:01:39.813Z,23.46
2022-10-18T15:04:12.136Z,23.03
2022-10-18T15:06:44.190Z,23.60
2022-10-18T15:09:13.147Z,22.55
2022-10-18T15:11:47.404Z,23.51
2022-10-18T15:14:19.127Z,23.46
2022-10-18T15:16:47.438Z,23.21
2022-10-18T15:19:14.138Z,22.57
2022-10-18T15:22:31.394Z,22.97
2022-10-18T15:25:16.645Z,23.38
2022-10-18T15:27:46.504Z,22.53
2022-10-18T15:30:36.262Z,23.09
2022-10-18T15:33:09.846Z,23.20
2022-10-18T15:35:38.865Z,23.08
2022-10-18T15:38:27.792Z,23.17
2022-10-18T15:40:57.080Z,22.99
2022-10-18T15:43:26.787Z,23.20
2022-10-18T15:45:58.835Z,23.17
2022-10-18T15:48:33.725Z,23.09
2022-10-18T15:51:04.775Z,23.09
2022-10-18T15:53:44.053Z,22.38
2022-10-18T15:56:30.866Z,23.01
2022-10-18T15:59:04.269Z,22.99
2022-10-18T16:01:43.200Z,21.61
2022-10-18T16:04:31.164Z,22.55
2022-10-18T16:07:01.378Z,22.64
2022-10-18T16:09:34.312Z,22.86
2022-10-18T16:12:04.337Z,22.73
2022-10-18T16:14:31.864Z,22.58
2022-10-18T16:17:01.581Z,22.71
2022-10-18T16:19:32.677Z,22.19
2022-10-18T16:22:06.599Z,22.70
2022-10-18T16:24:33.772Z,21.96
2022-10-18T16:27:01.248Z,21.76
2022-10-18T16:29:34.676Z,22.35
2022-10-18T16:32:07.899Z,22.53
2022-10-18T16:34:37.621Z,22.52
2022-10-18T16:37:04.167Z,22.14
2022-10-18T16:39:35.093Z,22.38
2022-10-18T16:42:02.056Z,21.88
2022-10-18T16:44:28.932Z,21.66
2022-10-18T16:46:56.873Z,22.35
2022-10-18T16:49:26.446Z,21.79
2022-10-18T16:51:55.099Z,22.17
2022-10-18T16:54:23.900Z,22.14
2022-10-18T16:56:51.884Z,22.20
2022-10-18T16:59:26.555Z,22.03
2022-10-18T17:02:06.499Z,21.91
2022-10-18T17:04:34.481Z,21.81
2022-10-18T17:07:03.674Z,22.10
2022-10-18T17:09:35.393Z,22.08
2022-10-18T17:12:07.370Z,21.95
2022-10-18T17:14:37.237Z,21.79
2022-10-18T17:17:03.931Z,21.81
2022-10-18T17:19:32.836Z,21.92
2022-10-18T17:22:02.691Z,21.52
2022-10-18T17:24:29.691Z,21.79
2022-10-18T17:26:56.471Z,21.54
2022-10-18T17:29:23.070Z,21.07
2022-10-18T17:31:49.726Z,21.72
2022-10-18T17:34:26.877Z,21.55
2022-10-18T17:36:54.372Z,21.66
2022-10-18T17:39:21.031Z,21.62
2022-10-18T17:41:48.062Z,21.49
2022-10-18T17:44:15.377Z,21.53
2022-10-18T17:46:44.539Z,21.50
2022-10-18T17:49:16.025Z,21.23
2022-10-18T17:51:45.554Z,21.55
2022-10-18T17:54:12.852Z,21.50
2022-10-18T17:56:40.864Z,21.00
2022-10-18T17:59:13.549Z,21.30
2022-10-18T18:01:41.190Z,21.40
2022-10-18T18:04:10.878Z,20.41
2022-10-18T18:06:39.283Z,21.07
2022-10-18T18:09:11.350Z,21.32
2022-10-18T18:11:41.199Z,20.77
2022-10-18T18:14:09.178Z,21.07
2022-10-18T18:16:41.453Z,20.70
2022-10-18T18:19:13.795Z,19.84
2022-10-18T18:21:41.700Z,21.12
2022-10-18T18:24:15.164Z,20.92
2022-10-18T18:26:43.740Z,21.13
2022-10-18T18:29:13.152Z,20.84
2022-10-18T18:31:43.691Z,20.98
2022-10-18T18:34:10.944Z,20.96
2022-10-18T18:36:38.589Z,20.62
2022-10-18T18:39:10.378Z,20.91
2022-10-18T18:41:38.677Z,20.89
2022-10-18T18:44:07.002Z,20.72
2022-10-18T18:46:38.991Z,20.83
2022-10-18T18:49:08.881Z,20.84
2022-10-18T18:51:40.730Z,20.81
2022-10-18T18:54:12.419Z,20.40
2022-10-18T18:56:41.768Z,20.59
2022-10-18T18:59:08.828Z,20.76
2022-10-18T19:01:38.202Z,20.60
2022-10-18T19:04:06.687Z,20.72
2022-10-18T19:06:39.816Z,20.70
2022-10-18T19:09:13.054Z,20.49
2022-10-18T19:11:40.352Z,20.73
2022-10-18T19:14:08.761Z,20.33
2022-10-18T19:16:40.998Z,20.63
2022-10-18T19:19:16.629Z,20.34
2022-10-18T19:21:46.905Z,20.47
2022-10-18T19:24:14.502Z,20.42
2022-10-18T19:26:48.976Z,20.25
2022-10-18T19:29:19.067Z,20.34
2022-10-18T19:31:46.321Z,20.03
2022-10-18T19:34:16.241Z,20.25
2022-10-18T19:36:48.430Z,20.13
2022-10-18T19:39:24.576Z,20.16
2022-10-18T19:41:55.365Z,20.17
2022-10-18T19:44:27.446Z,20.15
2022-10-18T19:46:55.475Z,19.68
2022-10-18T19:49:24.444Z,20.00
2022-10-18T19:51:57.619Z,20.04
2022-10-18T19:54:27.177Z,19.96
2022-10-18T19:56:56.837Z,19.85
2022-10-18T19:59:27.054Z,19.26
2022-10-18T20:01:54.229Z,19.97
2022-10-18T20:04:22.222Z,20.03
2022-10-18T20:06:50.217Z,20.01
2022-10-18T20:09:20.625Z,19.08
2022-10-18T20:11:51.872Z,19.81
2022-10-18T20:14:19.231Z,19.90
2022-10-18T20:16:50.075Z,19.84
2022-10-18T20:19:17.454Z,19.87
2022-10-18T20:21:44.946Z,19.87
2022-10-18T20:24:15.491Z,19.58
2022-10-18T20:26:43.849Z,19.78
2022-10-18T20:29:11.213Z,19.63
2022-10-18T20:31:39.728Z,19.73
2022-10-18T20:34:11.665Z,19.72
2022-10-18T20:36:39.413Z,19.32
2022-10-18T20:39:08.030Z,19.57
2022-10-18T20:41:39.957Z,19.68
2022-10-18T20:44:10.800Z,19.72
2022-10-18T20:46:38.848Z,19.28
2022-10-18T20:49:07.716Z,19.12
2022-10-18T20:51:35.196Z,19.65
2022-10-18T20:56:39.022Z,19.52
2022-10-18T20:59:10.209Z,19.39
2022-10-18T21:01:45.328Z,18.96
2022-10-18T21:04:12.144Z,19.54
2022-10-18T21:06:41.513Z,19.35
2022-10-18T21:09:14.809Z,19.10
2022-10-18T21:11:48.216Z,19.56
2022-10-18T21:14:23.582Z,19.18
2022-10-18T21:16:51.989Z,19.08
2022-10-18T21:19:20.427Z,19.51
2022-10-18T21:21:50.584Z,19.52
2022-10-18T21:24:21.446Z,19.36
2022-10-18T21:26:49.202Z,19.22
2022-10-18T21:29:21.627Z,19.47
2022-10-18T21:31:49.401Z,19.29
2022-10-18T21:34:17.960Z,19.00
2022-10-18T21:36:47.786Z,19.23
2022-10-18T21:39:19.725Z,19.35
2022-10-18T21:41:53.452Z,19.02
2022-10-18T21:44:24.549Z,18.51
2022-10-18T21:46:56.396Z,17.80
2022-10-18T21:49:26.115Z,19.24
2022-10-18T21:52:03.580Z,19.25
2022-10-18T21:54:32.464Z,19.23
2022-10-18T21:57:01.667Z,19.25
2022-10-18T21:59:34.393Z,19.21
2022-10-18T22:02:04.412Z,19.22
2022-10-18T22:04:36.195Z,18.93
2022-10-18T22:07:06.889Z,18.81
2022-10-18T22:09:41.814Z,19.08
2022-10-18T22:12:10.854Z,18.75
2022-10-18T22:14:42.250Z,19.14
2022-10-18T22:17:08.945Z,19.15
2022-10-18T22:19:42.826Z,18.84
2022-10-18T22:22:13.269Z,18.99
2022-10-18T22:24:40.039Z,19.11
2022-10-18T22:27:09.315Z,19.10
2022-10-18T22:29:37.259Z,19.04
2022-10-18T22:32:04.206Z,19.02
2022-10-18T22:34:31.070Z,19.00
2022-10-18T22:36:57.677Z,18.75
2022-10-18T22:39:24.699Z,18.91
2022-10-18T22:41:56.025Z,18.82
2022-10-18T22:44:22.955Z,18.63
2022-10-18T22:46:49.747Z,18.91
2022-10-18T22:49:20.275Z,18.83
2022-10-18T22:51:47.122Z,18.72
2022-10-18T22:54:15.799Z,18.87
2022-10-18T22:56:45.715Z,18.69
2022-10-18T22:59:12.427Z,18.32
2022-10-18T23:01:39.381Z,18.86
2022-10-18T23:04:06.365Z,18.41
2022-10-18T23:06:35.611Z,18.88
2022-10-18T23:09:06.240Z,18.91
2022-10-18T23:11:35.582Z,18.89
2022-10-18T23:14:06.862Z,18.45
2022-10-18T23:16:34.340Z,18.10
2022-10-18T23:19:01.109Z,18.93
2022-10-18T23:21:28.847Z,18.24
2022-10-18T23:24:00.921Z,18.45
2022-10-18T23:26:28.163Z,18.12
2022-10-18T23:28:58.134Z,18.74
2022-10-18T23:31:27.396Z,17.87
2022-10-18T23:33:59.176Z,18.77
2022-10-18T23:36:28.985Z,18.63
2022-10-18T23:38:56.233Z,18.51
2022-10-18T23:41:24.102Z,18.30
2022-10-18T23:43:51.270Z,18.56
2022-10-18T23:46:19.087Z,18.46
2022-10-18T23:48:48.367Z,18.64
2022-10-18T23:51:15.626Z,18.42
2022-10-18T23:53:42.561Z,17.84
2022-10-18T23:56:15.974Z,18.50
2022-10-18T23:58:46.423Z,18.63
